createdAt,value
2022-07-29T00:00:23.164Z,100535.56
2022-07-29T00:01:03.289Z,100534.38
2022-07-29T00:01:44.147Z,100541.91
2022-07-29T00:02:24.325Z,100541.91
2022-07-29T00:03:05.389Z,100535.03
2022-07-29T00:03:46.349Z,100538.47
2022-07-29T00:04:27.362Z,100543.28
2022-07-29T00:05:07.342Z,100536.47
2022-07-29T00:05:48.192Z,100543.66
2022-07-29T00:06:28.219Z,100540.91
2022-07-29T00:07:09.167Z,100537.16
2022-07-29T00:07:50.243Z,100549.47
2022-07-29T00:08:30.147Z,100544.19
2022-07-29T00:09:11.309Z,100547.75
2022-07-29T00:09:52.658Z,100535.47
2022-07-29T00:10:33.319Z,100539.09
2022-07-29T00:11:14.203Z,100530.44
2022-07-29T00:11:54.266Z,100528.53
2022-07-29T00:12:35.262Z,100543.91
2022-07-29T00:13:16.270Z,100531.41
2022-07-29T00:13:56.178Z,100539.94
2022-07-29T00:14:37.219Z,100545.38
2022-07-29T00:15:18.211Z,100541.78
2022-07-29T00:15:58.333Z,100544.34
2022-07-29T00:16:45.304Z,100542.63
2022-07-29T00:17:25.216Z,100538.50
2022-07-29T00:18:06.170Z,100542.09
2022-07-29T00:18:47.283Z,100541.75
2022-07-29T00:19:27.173Z,100525.16
2022-07-29T00:20:07.331Z,100541.41
2022-07-29T00:20:47.226Z,100545.81
2022-07-29T00:21:27.229Z,100537.81
2022-07-29T00:22:08.230Z,100533.34
2022-07-29T00:22:48.438Z,100533.69
2022-07-29T00:23:29.911Z,100546.69
2022-07-29T00:24:11.228Z,100538.97
2022-07-29T00:24:51.176Z,100548.72
2022-07-29T00:25:31.216Z,100552.97
2022-07-29T00:26:16.277Z,100549.72
2022-07-29T00:26:56.204Z,100541.88
2022-07-29T00:27:37.282Z,100559.63
2022-07-29T00:28:17.281Z,100548.38
2022-07-29T00:29:30.717Z,100550.25
2022-07-29T00:29:58.244Z,100552.81
2022-07-29T00:30:38.176Z,100552.31
2022-07-29T00:31:25.530Z,100554.56
2022-07-29T00:32:21.149Z,100550.31
2022-07-29T00:33:15.135Z,100540.41
2022-07-29T00:34:09.164Z,100537.50
2022-07-29T00:35:21.327Z,100545.56
2022-07-29T00:36:15.178Z,100550.66
2022-07-29T00:36:55.175Z,100543.66
2022-07-29T00:37:35.254Z,100542.59
2022-07-29T00:38:15.173Z,100546.34
2022-07-29T00:38:59.296Z,100551.16
2022-07-29T00:39:39.118Z,100541.22
2022-07-29T00:40:23.338Z,100538.50
2022-07-29T00:41:04.291Z,100537.28
2022-07-29T00:41:44.240Z,100541.34
2022-07-29T00:42:25.199Z,100540.84
2022-07-29T00:43:05.301Z,100544.31
2022-07-29T00:43:46.222Z,100543.97
2022-07-29T00:44:26.682Z,100532.53
2022-07-29T00:45:08.123Z,100536.31
2022-07-29T00:45:52.236Z,100541.53
2022-07-29T00:46:32.182Z,100536.25
2022-07-29T00:47:13.478Z,100540.00
2022-07-29T00:47:53.218Z,100532.78
2022-07-29T00:48:33.243Z,100537.41
2022-07-29T00:49:15.194Z,100532.28
2022-07-29T00:49:55.246Z,100545.22
2022-07-29T00:50:36.225Z,100548.25
2022-07-29T00:51:17.394Z,100545.38
2022-07-29T00:51:58.167Z,100535.63
2022-07-29T00:52:40.207Z,100535.50
2022-07-29T00:53:21.143Z,100532.88
2022-07-29T00:54:02.227Z,100538.84
2022-07-29T00:54:45.030Z,100541.44
2022-07-29T00:55:26.247Z,100536.16
2022-07-29T00:56:07.337Z,100538.41
2022-07-29T00:56:48.205Z,100542.78
2022-07-29T00:57:30.218Z,100538.53
2022-07-29T00:58:11.278Z,100542.78
2022-07-29T00:58:52.148Z,100534.28
2022-07-29T00:59:36.393Z,100541.72
2022-07-29T01:00:25.122Z,100527.34
2022-07-29T01:01:06.300Z,100531.47
2022-07-29T01:01:47.227Z,100537.59
2022-07-29T01:02:28.124Z,100535.16
2022-07-29T01:03:08.124Z,100535.69
2022-07-29T01:03:48.317Z,100535.50
2022-07-29T01:04:31.136Z,100543.16
2022-07-29T01:05:13.938Z,100529.69
2022-07-29T01:05:54.137Z,100527.31
2022-07-29T01:06:34.463Z,100540.97
2022-07-29T01:07:15.141Z,100532.25
2022-07-29T01:07:59.297Z,100528.25
2022-07-29T01:08:40.108Z,100527.75
2022-07-29T01:09:42.086Z,100532.34
2022-07-29T01:10:23.154Z,100520.69
2022-07-29T01:11:03.202Z,100527.22
2022-07-29T01:11:44.090Z,100529.63
2022-07-29T01:12:34.752Z,100519.41
2022-07-29T01:13:16.086Z,100537.22
2022-07-29T01:13:56.395Z,100522.53
2022-07-29T01:14:37.126Z,100534.59
2022-07-29T01:15:17.260Z,100528.84
2022-07-29T01:16:04.196Z,100536.94
2022-07-29T01:17:17.177Z,100536.84
2022-07-29T01:18:29.096Z,100529.75
2022-07-29T01:19:36.156Z,100531.63
2022-07-29T01:21:17.276Z,100528.66
2022-07-29T01:22:04.200Z,100524.63
2022-07-29T01:23:14.083Z,100528.97
2022-07-29T01:24:55.154Z,100509.34
2022-07-29T01:26:09.066Z,100525.91
2022-07-29T01:27:18.180Z,100511.91
2022-07-29T01:28:40.130Z,100524.00
2022-07-29T01:29:42.079Z,100517.19
2022-07-29T01:30:17.205Z,100517.47
2022-07-29T01:31:05.088Z,100526.72
2022-07-29T01:32:00.670Z,100521.22
2022-07-29T01:32:45.066Z,100501.00
2022-07-29T01:33:45.063Z,100514.06
2022-07-29T01:34:46.037Z,100520.56
2022-07-29T01:35:45.130Z,100525.63
2022-07-29T01:36:34.045Z,100522.53
2022-07-29T01:37:27.132Z,100505.41
2022-07-29T01:38:21.095Z,100516.00
2022-07-29T01:39:26.092Z,100511.50
2022-07-29T01:40:08.055Z,100502.19
2022-07-29T01:40:56.115Z,100516.00
2022-07-29T01:41:40.068Z,100514.06
2022-07-29T01:42:47.102Z,100511.72
2022-07-29T01:43:48.094Z,100511.19
2022-07-29T01:44:39.074Z,100508.78
2022-07-29T01:45:36.073Z,100513.53
2022-07-29T01:46:23.189Z,100513.00
2022-07-29T01:47:07.027Z,100508.41
2022-07-29T01:48:04.167Z,100517.44
2022-07-29T01:48:58.135Z,100516.94
2022-07-29T01:49:44.104Z,100520.69
2022-07-29T01:50:26.025Z,100513.38
2022-07-29T01:51:19.178Z,100512.56
2022-07-29T01:52:14.989Z,100510.22
2022-07-29T01:53:12.232Z,100499.06
2022-07-29T01:54:51.078Z,100514.28
2022-07-29T01:55:36.103Z,100516.44
2022-07-29T01:56:18.016Z,100512.94
2022-07-29T01:57:01.091Z,100514.91
2022-07-29T01:57:44.056Z,100505.75
2022-07-29T01:58:26.086Z,100505.75
2022-07-29T01:59:07.022Z,100498.91
2022-07-29T01:59:48.080Z,100509.22
2022-07-29T02:00:30.029Z,100500.94
2022-07-29T02:01:13.024Z,100505.94
2022-07-29T02:01:55.074Z,100505.00
2022-07-29T02:02:36.099Z,100493.56
2022-07-29T02:03:19.037Z,100497.13
2022-07-29T02:04:01.116Z,100509.16
2022-07-29T02:04:44.069Z,100507.44
2022-07-29T02:05:27.213Z,100502.69
2022-07-29T02:06:10.041Z,100489.28
2022-07-29T02:06:51.148Z,100503.41
2022-07-29T02:07:33.022Z,100494.84
2022-07-29T02:08:14.146Z,100499.09
2022-07-29T02:08:56.998Z,100497.66
2022-07-29T02:09:39.081Z,100506.22
2022-07-29T02:10:20.056Z,100495.81
2022-07-29T02:11:08.101Z,100507.44
2022-07-29T02:11:58.053Z,100506.69
2022-07-29T02:12:40.207Z,100507.75
2022-07-29T02:13:22.073Z,100503.41
2022-07-29T02:14:04.089Z,100496.06
2022-07-29T02:14:57.999Z,100507.19
2022-07-29T02:15:40.127Z,100494.59
2022-07-29T02:16:21.041Z,100506.22
2022-07-29T02:17:11.023Z,100502.44
2022-07-29T02:18:41.041Z,100498.16
2022-07-29T02:19:38.040Z,100501.91
2022-07-29T02:20:32.041Z,100500.47
2022-07-29T02:21:27.002Z,100501.91
2022-07-29T02:22:21.040Z,100494.03
2022-07-29T02:23:15.990Z,100495.31
2022-07-29T02:24:13.405Z,100497.72
2022-07-29T02:25:13.884Z,100482.16
2022-07-29T02:26:10.991Z,100495.06
2022-07-29T02:27:07.990Z,100496.19
2022-07-29T02:27:50.116Z,100502.16
2022-07-29T02:28:34.136Z,100491.41
2022-07-29T02:29:14.997Z,100487.03
2022-07-29T02:29:57.079Z,100482.59
2022-07-29T02:30:39.010Z,100490.69
2022-07-29T02:31:21.092Z,100492.22
2022-07-29T02:32:03.021Z,100482.34
2022-07-29T02:32:45.087Z,100493.22
2022-07-29T02:33:29.108Z,100489.47
2022-07-29T02:34:16.598Z,100489.81
2022-07-29T02:35:01.004Z,100495.31
2022-07-29T02:35:41.066Z,100496.03
2022-07-29T02:36:21.989Z,100467.44
2022-07-29T02:37:03.071Z,100489.53
2022-07-29T02:37:45.028Z,100480.03
2022-07-29T02:38:52.075Z,100479.97
2022-07-29T02:39:47.017Z,100487.13
2022-07-29T02:40:40.977Z,100482.94
2022-07-29T02:41:43.082Z,100486.63
2022-07-29T02:42:37.989Z,100481.41
2022-07-29T02:43:31.977Z,100479.59
2022-07-29T02:44:20.371Z,100489.06
2022-07-29T02:45:01.111Z,100476.75
2022-07-29T02:45:44.973Z,100482.94
2022-07-29T02:46:32.380Z,100477.72
2022-07-29T02:47:26.982Z,100477.72
2022-07-29T02:48:08.106Z,100483.72
2022-07-29T02:49:12.122Z,100477.59
2022-07-29T02:50:25.027Z,100482.69
2022-07-29T02:51:10.043Z,100479.28
2022-07-29T02:52:42.970Z,100486.28
2022-07-29T02:53:33.121Z,100464.50
2022-07-29T02:54:45.014Z,100490.69
2022-07-29T02:55:50.965Z,100483.53
2022-07-29T02:56:47.056Z,100476.44
2022-07-29T02:57:55.456Z,100485.47
2022-07-29T02:59:02.046Z,100475.13
2022-07-29T02:59:56.968Z,100485.94
2022-07-29T03:00:53.016Z,100480.50
2022-07-29T03:01:48.091Z,100482.84
2022-07-29T03:02:43.985Z,100479.16
2022-07-29T03:03:40.992Z,100481.59
2022-07-29T03:04:37.154Z,100472.56
2022-07-29T03:05:34.003Z,100476.53
2022-07-29T03:06:37.623Z,100462.06
2022-07-29T03:07:17.138Z,100475.72
2022-07-29T03:08:09.016Z,100470.91
2022-07-29T03:08:49.010Z,100472.41
2022-07-29T03:09:30.935Z,100469.63
2022-07-29T03:10:13.673Z,100480.00
2022-07-29T03:10:54.989Z,100474.53
2022-07-29T03:11:42.197Z,100466.53
2022-07-29T03:12:24.036Z,100458.84
2022-07-29T03:13:11.947Z,100482.34
2022-07-29T03:13:47.068Z,100471.78
2022-07-29T03:14:33.941Z,100462.38
2022-07-29T03:15:09.298Z,100474.25
2022-07-29T03:15:57.007Z,100463.66
2022-07-29T03:16:31.079Z,100463.84
2022-07-29T03:17:11.967Z,100476.69
2022-07-29T03:18:06.984Z,100463.66
2022-07-29T03:19:01.959Z,100481.97
2022-07-29T03:19:59.866Z,100476.47
2022-07-29T03:20:54.022Z,100473.91
2022-07-29T03:21:48.984Z,100458.09
2022-07-29T03:22:36.046Z,100480.31
2022-07-29T03:23:10.010Z,100483.19
2022-07-29T03:23:56.945Z,100481.56
2022-07-29T03:24:38.125Z,100483.06
2022-07-29T03:25:27.007Z,100479.03
2022-07-29T03:26:02.034Z,100472.41
2022-07-29T03:26:48.930Z,100486.41
2022-07-29T03:27:22.989Z,100472.56
2022-07-29T03:28:04.048Z,100491.16
2022-07-29T03:28:45.051Z,100478.38
2022-07-29T03:29:25.970Z,100479.03
2022-07-29T03:30:18.314Z,100464.63
2022-07-29T03:31:02.001Z,100472.63
2022-07-29T03:31:43.652Z,100472.84
2022-07-29T03:32:25.330Z,100474.25
2022-07-29T03:33:13.699Z,100472.19
2022-07-29T03:34:07.936Z,100473.16
2022-07-29T03:35:02.031Z,100475.72
2022-07-29T03:35:55.916Z,100482.47
2022-07-29T03:36:50.002Z,100490.38
2022-07-29T03:37:44.030Z,100480.50
2022-07-29T03:38:33.961Z,100492.47
2022-07-29T03:39:09.120Z,100482.94
2022-07-29T03:39:57.914Z,100483.63
2022-07-29T03:40:46.215Z,100486.97
2022-07-29T03:41:32.946Z,100485.28
2022-07-29T03:42:08.863Z,100464.59
2022-07-29T03:42:57.909Z,100483.31
2022-07-29T03:43:33.558Z,100487.34
2022-07-29T03:44:16.333Z,100476.75
2022-07-29T03:44:58.076Z,100490.00
2022-07-29T03:45:38.931Z,100478.88
2022-07-29T03:46:19.169Z,100494.47
2022-07-29T03:46:59.900Z,100496.22
2022-07-29T03:47:50.242Z,100502.63
2022-07-29T03:48:33.143Z,100490.34
2022-07-29T03:49:14.074Z,100490.13
2022-07-29T03:49:57.951Z,100491.69
2022-07-29T03:50:39.037Z,100499.06
2022-07-29T03:51:19.940Z,100484.59
2022-07-29T03:52:13.994Z,100484.16
2022-07-29T03:52:55.018Z,100500.88
2022-07-29T03:53:36.462Z,100492.81
2022-07-29T03:54:18.194Z,100491.25
2022-07-29T03:55:05.966Z,100498.13
2022-07-29T03:56:06.958Z,100488.44
2022-07-29T03:57:03.968Z,100489.69
2022-07-29T03:57:59.951Z,100498.78
2022-07-29T03:58:53.907Z,100497.31
2022-07-29T03:59:48.992Z,100493.59
2022-07-29T04:00:31.936Z,100493.28
2022-07-29T04:01:15.066Z,100489.25
2022-07-29T04:01:55.988Z,100493.78
2022-07-29T04:02:35.988Z,100493.59
2022-07-29T04:03:16.985Z,100486.06
2022-07-29T04:03:57.115Z,100495.16
2022-07-29T04:04:42.197Z,100496.34
2022-07-29T04:05:25.998Z,100507.94
2022-07-29T04:06:12.931Z,100498.38
2022-07-29T04:06:54.069Z,100501.91
2022-07-29T04:07:34.939Z,100492.72
2022-07-29T04:08:14.991Z,100495.66
2022-07-29T04:08:55.918Z,100492.06
2022-07-29T04:09:36.045Z,100492.09
2022-07-29T04:10:16.925Z,100495.69
2022-07-29T04:10:57.043Z,100501.47
2022-07-29T04:12:03.420Z,100485.97
2022-07-29T04:12:39.005Z,100495.56
2022-07-29T04:13:18.934Z,100496.94
2022-07-29T04:13:58.992Z,100496.09
2022-07-29T04:14:40.910Z,100499.50
2022-07-29T04:15:21.042Z,100496.94
2022-07-29T04:16:01.968Z,100497.13
2022-07-29T04:16:49.016Z,100504.13
2022-07-29T04:17:42.947Z,100502.94
2022-07-29T04:18:37.946Z,100501.59
2022-07-29T04:19:31.883Z,100506.19
2022-07-29T04:20:25.918Z,100511.44
2022-07-29T04:21:19.906Z,100505.69
2022-07-29T04:22:08.914Z,100505.53
2022-07-29T04:22:43.001Z,100510.97
2022-07-29T04:23:29.941Z,100504.66
2022-07-29T04:24:04.000Z,100511.50
2022-07-29T04:24:50.923Z,100497.69
2022-07-29T04:25:25.038Z,100508.78
2022-07-29T04:26:11.918Z,100511.53
2022-07-29T04:26:46.057Z,100506.94
2022-07-29T04:27:33.899Z,100502.31
2022-07-29T04:28:08.002Z,100507.09
2022-07-29T04:28:54.875Z,100505.41
2022-07-29T04:29:29.018Z,100505.22
2022-07-29T04:30:16.928Z,100512.91
2022-07-29T04:30:51.084Z,100496.19
2022-07-29T04:31:37.932Z,100505.25
2022-07-29T04:32:13.074Z,100486.97
2022-07-29T04:32:52.968Z,100510.72
2022-07-29T04:33:33.013Z,100502.66
2022-07-29T04:34:14.384Z,100503.88
2022-07-29T04:34:54.953Z,100506.47
2022-07-29T04:35:50.459Z,100499.97
2022-07-29T04:36:34.941Z,100503.25
2022-07-29T04:37:14.889Z,100507.50
2022-07-29T04:38:01.911Z,100504.44
2022-07-29T04:38:55.862Z,100493.19
2022-07-29T04:39:49.909Z,100503.44
2022-07-29T04:40:43.941Z,100507.38
2022-07-29T04:41:37.873Z,100504.47
2022-07-29T04:42:31.905Z,100512.00
2022-07-29T04:43:26.330Z,100509.25
2022-07-29T04:44:05.831Z,100502.94
2022-07-29T04:44:53.864Z,100509.25
2022-07-29T04:45:27.951Z,100503.97
2022-07-29T04:46:14.957Z,100514.56
2022-07-29T04:46:49.033Z,100509.09
2022-07-29T04:47:35.910Z,100508.59
2022-07-29T04:48:09.929Z,100511.00
2022-07-29T04:48:50.967Z,100503.13
2022-07-29T04:49:31.039Z,100503.47
2022-07-29T04:50:13.911Z,100498.00
2022-07-29T04:50:53.949Z,100501.09
2022-07-29T04:51:34.866Z,100503.81
2022-07-29T04:52:15.000Z,100514.38
2022-07-29T04:52:54.850Z,100507.75
2022-07-29T04:53:48.866Z,100505.69
2022-07-29T04:54:29.869Z,100509.97
2022-07-29T04:55:11.999Z,100508.09
2022-07-29T04:55:52.869Z,100509.28
2022-07-29T04:56:34.085Z,100499.06
2022-07-29T04:57:14.855Z,100505.72
2022-07-29T04:57:54.961Z,100505.72
2022-07-29T04:58:34.888Z,100505.88
2022-07-29T04:59:14.907Z,100498.19
2022-07-29T04:59:49.621Z,100498.69
2022-07-29T05:00:36.864Z,100498.00
2022-07-29T05:01:11.043Z,100499.38
2022-07-29T05:01:57.937Z,100507.56
2022-07-29T05:02:32.443Z,100510.63
2022-07-29T05:03:19.974Z,100512.34
2022-07-29T05:04:00.150Z,100511.13
2022-07-29T05:04:42.866Z,100512.88
2022-07-29T05:05:24.455Z,100507.56
2022-07-29T05:06:05.038Z,100506.88
2022-07-29T05:06:46.330Z,100498.03
2022-07-29T05:07:26.868Z,100503.81
2022-07-29T05:08:07.035Z,100498.34
2022-07-29T05:08:46.886Z,100509.28
2022-07-29T05:09:26.938Z,100503.28
2022-07-29T05:10:12.888Z,100494.41
2022-07-29T05:10:53.942Z,100503.44
2022-07-29T05:11:33.843Z,100506.50
2022-07-29T05:12:15.914Z,100505.00
2022-07-29T05:12:56.917Z,100507.53
2022-07-29T05:13:47.209Z,100511.66
2022-07-29T05:14:30.022Z,100494.91
2022-07-29T05:15:12.029Z,100509.94
2022-07-29T05:15:57.880Z,100494.06
2022-07-29T05:16:41.339Z,100499.34
2022-07-29T05:17:22.862Z,100504.47
2022-07-29T05:18:05.989Z,100504.13
2022-07-29T05:18:46.863Z,100500.03
2022-07-29T05:19:28.195Z,100494.88
2022-07-29T05:20:08.896Z,100502.94
2022-07-29T05:20:48.959Z,100507.19
2022-07-29T05:21:29.893Z,100499.00
2022-07-29T05:22:11.055Z,100501.75
2022-07-29T05:22:50.889Z,100499.84
2022-07-29T05:23:30.949Z,100503.41
2022-07-29T05:24:11.906Z,100504.78
2022-07-29T05:24:51.966Z,100505.63
2022-07-29T05:25:44.366Z,100503.41
2022-07-29T05:26:25.905Z,100496.59
2022-07-29T05:27:06.050Z,100503.41
2022-07-29T05:27:48.950Z,100497.97
2022-07-29T05:28:34.222Z,100500.00
2022-07-29T05:29:44.819Z,100503.41
2022-07-29T05:30:15.858Z,100502.25
2022-07-29T05:30:56.012Z,100506.50
2022-07-29T05:31:36.890Z,100500.03
2022-07-29T05:32:23.868Z,100505.50
2022-07-29T05:33:35.221Z,100510.09
2022-07-29T05:34:30.939Z,100503.78
2022-07-29T05:35:24.873Z,100505.81
2022-07-29T05:36:20.890Z,100487.34
2022-07-29T05:37:16.868Z,100507.53
2022-07-29T05:37:57.978Z,100502.00
2022-07-29T05:38:39.292Z,100505.78
2022-07-29T05:39:20.903Z,100499.97
2022-07-29T05:40:01.015Z,100506.44
2022-07-29T05:40:42.926Z,100509.34
2022-07-29T05:41:24.059Z,100507.09
2022-07-29T05:42:04.981Z,100500.44
2022-07-29T05:42:44.892Z,100501.31
2022-07-29T05:43:27.028Z,100514.59
2022-07-29T05:44:08.235Z,100505.41
2022-07-29T05:44:47.859Z,100506.59
2022-07-29T05:45:28.436Z,100511.53
2022-07-29T05:46:08.953Z,100504.69
2022-07-29T05:46:49.984Z,100505.53
2022-07-29T05:47:30.914Z,100504.31
2022-07-29T05:48:10.974Z,100498.00
2022-07-29T05:48:51.982Z,100499.34
2022-07-29T05:49:32.247Z,100501.56
2022-07-29T05:50:12.823Z,100486.84
2022-07-29T05:51:06.861Z,100496.56
2022-07-29T05:52:00.951Z,100498.41
2022-07-29T05:52:54.869Z,100488.16
2022-07-29T05:53:48.828Z,100493.56
2022-07-29T05:54:28.904Z,100494.25
2022-07-29T05:55:08.996Z,100484.69
2022-07-29T05:55:49.828Z,100470.69
2022-07-29T05:56:30.010Z,100493.88
2022-07-29T05:57:10.898Z,100490.09
2022-07-29T05:57:50.909Z,100487.75
2022-07-29T05:58:31.858Z,100491.28
2022-07-29T05:59:15.540Z,100475.88
2022-07-29T05:59:59.879Z,100483.53
2022-07-29T06:00:39.918Z,100481.47
2022-07-29T06:01:19.946Z,100484.22
2022-07-29T06:02:00.044Z,100485.84
2022-07-29T06:02:40.918Z,100492.00
2022-07-29T06:03:20.912Z,100487.19
2022-07-29T06:04:00.905Z,100489.28
2022-07-29T06:04:40.946Z,100480.19
2022-07-29T06:05:24.087Z,100481.34
2022-07-29T06:06:05.242Z,100486.94
2022-07-29T06:06:44.918Z,100481.63
2022-07-29T06:07:25.119Z,100483.16
2022-07-29T06:08:05.876Z,100482.13
2022-07-29T06:08:45.945Z,100477.16
2022-07-29T06:09:26.834Z,100476.22
2022-07-29T06:10:06.958Z,100482.00
2022-07-29T06:10:46.910Z,100481.44
2022-07-29T06:11:27.033Z,100473.41
2022-07-29T06:12:07.801Z,100477.28
2022-07-29T06:12:47.920Z,100472.56
2022-07-29T06:13:28.940Z,100474.19
2022-07-29T06:14:08.917Z,100483.38
2022-07-29T06:14:53.891Z,100472.03
2022-07-29T06:15:35.030Z,100474.94
2022-07-29T06:16:15.433Z,100484.31
2022-07-29T06:17:09.944Z,100476.06
2022-07-29T06:17:59.003Z,100484.59
2022-07-29T06:18:44.853Z,100465.09
2022-07-29T06:19:24.783Z,100474.06
2022-07-29T06:20:07.939Z,100480.69
2022-07-29T06:20:48.848Z,100478.94
2022-07-29T06:21:28.960Z,100480.63
2022-07-29T06:22:02.937Z,100481.94
2022-07-29T06:22:49.802Z,100467.97
2022-07-29T06:23:26.930Z,100480.91
2022-07-29T06:24:15.151Z,100486.69
2022-07-29T06:24:48.925Z,100484.88
2022-07-29T06:25:36.814Z,100483.00
2022-07-29T06:26:10.954Z,100488.56
2022-07-29T06:26:51.883Z,100479.00
2022-07-29T06:27:31.933Z,100475.91
2022-07-29T06:28:13.868Z,100477.22
2022-07-29T06:28:54.112Z,100477.31
2022-07-29T06:29:34.802Z,100479.50
2022-07-29T06:30:15.914Z,100470.88
2022-07-29T06:30:55.823Z,100476.22
2022-07-29T06:31:35.877Z,100481.72
2022-07-29T06:32:16.807Z,100459.88
2022-07-29T06:32:57.936Z,100476.38
2022-07-29T06:33:37.851Z,100483.38
2022-07-29T06:34:18.151Z,100492.53
2022-07-29T06:35:32.017Z,100488.09
2022-07-29T06:36:00.753Z,100480.31
2022-07-29T06:36:45.097Z,100484.56
2022-07-29T06:37:32.825Z,100488.22
2022-07-29T06:38:31.816Z,100484.75
2022-07-29T06:39:29.899Z,100485.84
2022-07-29T06:40:44.858Z,100457.88
2022-07-29T06:41:41.865Z,100482.50
2022-07-29T06:42:39.604Z,100480.72
2022-07-29T06:43:33.782Z,100477.56
2022-07-29T06:44:27.845Z,100477.81
2022-07-29T06:45:21.898Z,100474.50
2022-07-29T06:46:23.123Z,100465.78
2022-07-29T06:47:17.911Z,100470.28
2022-07-29T06:47:58.979Z,100474.56
2022-07-29T06:48:39.969Z,100474.16
2022-07-29T06:49:21.945Z,100476.25
2022-07-29T06:50:02.535Z,100474.63
2022-07-29T06:50:48.830Z,100482.69
2022-07-29T06:51:30.901Z,100468.78
2022-07-29T06:52:11.860Z,100477.25
2022-07-29T06:52:52.003Z,100476.66
2022-07-29T06:53:34.879Z,100474.75
2022-07-29T06:54:15.185Z,100478.78
2022-07-29T06:54:55.851Z,100481.19
2022-07-29T06:55:39.646Z,100477.38
2022-07-29T06:56:21.794Z,100480.34
2022-07-29T06:57:02.936Z,100482.47
2022-07-29T06:57:43.833Z,100481.63
2022-07-29T06:58:24.017Z,100481.88
2022-07-29T06:59:04.842Z,100485.94
2022-07-29T06:59:44.865Z,100484.91
2022-07-29T07:00:25.866Z,100482.41
2022-07-29T07:01:09.061Z,100483.03
2022-07-29T07:01:52.212Z,100483.50
2022-07-29T07:02:42.018Z,100470.13
2022-07-29T07:03:23.806Z,100483.97
2022-07-29T07:04:03.908Z,100487.75
2022-07-29T07:04:44.918Z,100481.84
2022-07-29T07:05:25.020Z,100493.09
2022-07-29T07:06:05.787Z,100480.41
2022-07-29T07:06:46.919Z,100483.00
2022-07-29T07:07:31.808Z,100485.34
2022-07-29T07:08:13.091Z,100484.94
2022-07-29T07:08:56.152Z,100481.22
2022-07-29T07:09:39.979Z,100475.25
2022-07-29T07:10:28.107Z,100481.03
2022-07-29T07:11:17.899Z,100481.66
2022-07-29T07:12:22.049Z,100465.31
2022-07-29T07:13:02.876Z,100480.84
2022-07-29T07:13:43.872Z,100488.28
2022-07-29T07:14:24.922Z,100485.53
2022-07-29T07:15:05.846Z,100482.59
2022-07-29T07:15:47.916Z,100487.25
2022-07-29T07:16:22.114Z,100479.81
2022-07-29T07:17:11.871Z,100480.06
2022-07-29T07:17:48.323Z,100479.22
2022-07-29T07:18:36.118Z,100478.59
2022-07-29T07:19:09.969Z,100482.66
2022-07-29T07:19:59.003Z,100481.59
2022-07-29T07:20:34.144Z,100478.38
2022-07-29T07:21:18.742Z,100479.72
2022-07-29T07:22:01.872Z,100483.53
2022-07-29T07:22:44.858Z,100474.59
2022-07-29T07:23:24.931Z,100480.34
2022-07-29T07:24:06.890Z,100473.81
2022-07-29T07:24:52.211Z,100475.91
2022-07-29T07:26:29.864Z,100484.38
2022-07-29T07:27:04.974Z,100479.94
2022-07-29T07:28:41.986Z,100482.72
2022-07-29T07:29:29.078Z,100481.47
2022-07-29T07:30:06.699Z,100473.19
2022-07-29T07:30:53.944Z,100474.47
2022-07-29T07:31:28.052Z,100478.31
2022-07-29T07:32:07.926Z,100486.78
2022-07-29T07:32:48.069Z,100451.38
2022-07-29T07:33:30.003Z,100446.72
2022-07-29T07:34:14.087Z,100466.66
2022-07-29T07:34:59.324Z,100465.38
2022-07-29T07:35:46.276Z,100485.34
2022-07-29T07:36:28.908Z,100479.41
2022-07-29T07:37:15.914Z,100481.13
2022-07-29T07:38:11.221Z,100470.53
2022-07-29T07:39:27.628Z,100472.22
2022-07-29T07:40:21.767Z,100450.38
2022-07-29T07:41:15.691Z,100478.59
2022-07-29T07:42:39.148Z,100482.06
2022-07-29T07:43:24.986Z,100455.28
2022-07-29T07:44:16.008Z,100445.97
2022-07-29T07:45:12.118Z,100457.44
2022-07-29T07:45:58.944Z,100446.84
2022-07-29T07:46:34.030Z,100471.06
2022-07-29T07:47:27.947Z,100470.44
2022-07-29T07:48:08.988Z,100471.94
2022-07-29T07:49:03.841Z,100474.50
2022-07-29T07:49:57.784Z,100466.41
2022-07-29T07:50:53.812Z,100467.06
2022-07-29T07:51:50.948Z,100475.34
2022-07-29T07:52:44.871Z,100466.66
2022-07-29T07:53:31.795Z,100465.41
2022-07-29T07:54:08.146Z,100468.56
2022-07-29T07:54:55.829Z,100474.53
2022-07-29T07:55:47.467Z,100475.38
2022-07-29T07:56:38.103Z,100471.56
2022-07-29T07:57:12.958Z,100471.34
2022-07-29T07:58:01.154Z,100474.97
2022-07-29T07:58:42.900Z,100469.84
2022-07-29T07:59:36.968Z,100456.72
2022-07-29T08:00:31.716Z,100466.69
2022-07-29T08:01:49.960Z,100466.06
2022-07-29T08:02:42.810Z,100470.78
2022-07-29T08:03:17.417Z,100472.47
2022-07-29T08:04:04.835Z,100474.16
2022-07-29T08:04:41.329Z,100476.28
2022-07-29T08:05:28.894Z,100475.03
2022-07-29T08:06:04.039Z,100466.53
2022-07-29T08:06:50.826Z,100466.50
2022-07-29T08:07:24.526Z,100472.44
2022-07-29T08:08:16.082Z,100471.19
2022-07-29T08:08:51.909Z,100477.97
2022-07-29T08:09:34.809Z,100474.16
2022-07-29T08:10:09.457Z,100477.97
2022-07-29T08:10:53.981Z,100479.66
2022-07-29T08:11:34.838Z,100476.06
2022-07-29T08:12:19.979Z,100484.34
2022-07-29T08:13:00.833Z,100480.50
2022-07-29T08:13:44.903Z,100477.97
2022-07-29T08:14:24.965Z,100474.38
2022-07-29T08:15:06.981Z,100472.44
2022-07-29T08:15:46.091Z,100484.31
2022-07-29T08:16:20.830Z,100490.06
2022-07-29T08:17:02.033Z,100476.88
2022-07-29T08:17:37.014Z,100486.00
2022-07-29T08:18:11.604Z,100485.59
2022-07-29T08:18:53.803Z,100477.31
2022-07-29T08:19:29.869Z,100478.38
2022-07-29T08:20:04.660Z,100474.13
2022-07-29T08:20:48.113Z,100479.22
2022-07-29T08:21:22.888Z,100465.19
2022-07-29T08:21:56.613Z,100473.69
2022-07-29T08:22:38.018Z,100479.81
2022-07-29T08:23:13.889Z,100478.75
2022-07-29T08:24:02.883Z,100467.31
2022-07-29T08:24:51.777Z,100473.66
2022-07-29T08:25:26.116Z,100470.28
2022-07-29T08:26:06.778Z,100469.00
2022-07-29T08:26:48.851Z,100468.16
2022-07-29T08:27:44.992Z,100469.84
2022-07-29T08:28:25.948Z,100468.59
2022-07-29T08:29:06.728Z,100477.47
2022-07-29T08:29:47.916Z,100470.72
2022-07-29T08:30:28.731Z,100478.75
2022-07-29T08:31:15.870Z,100472.78
2022-07-29T08:31:49.746Z,100475.34
2022-07-29T08:32:55.620Z,100487.25
2022-07-29T08:33:30.537Z,100484.41
2022-07-29T08:34:18.725Z,100481.44
2022-07-29T08:34:59.648Z,100484.63
2022-07-29T08:35:48.898Z,100484.19
2022-07-29T08:36:28.893Z,100480.38
2022-07-29T08:37:09.817Z,100479.28
2022-07-29T08:39:17.439Z,100480.28
2022-07-29T08:40:17.824Z,100479.00
2022-07-29T08:40:59.917Z,100484.75
2022-07-29T08:41:39.821Z,100482.81
2022-07-29T08:42:19.906Z,100480.28